This is the latest recevied weather packets stored in our database for station/object OE3EMC-13. If no packets are shown the sender has not sent any weather packets the latest 1 day(s).
| Time | Temp. | Humidity | Pressure | Rain* | Wind** | Luminosity | Snow |
|---|---|---|---|---|---|---|---|
| 1778052190 | 14.44° C | 69% | 1100 hPa | 0 mm | - | - | - |
| 1778051590 | 13.33° C | 70% | 1100 hPa | 0 mm | - | - | - |
| 1778050391 | 12.22° C | 78% | 1100 hPa | 0 mm | - | - | - |
| 1778049791 | 12.22° C | 78% | 1100 hPa | 0 mm | - | - | - |
| 1778049191 | 11.67° C | 79% | 1100 hPa | 0 mm | - | - | - |
| 1778048591 | 11.67° C | 79% | 1100 hPa | 0 mm | - | - | - |
| 1778047394 | 11.67° C | 82% | 1100 hPa | 0 mm | - | - | - |
| 1778046794 | 11.11° C | 84% | 1100 hPa | 0 mm | - | - | - |
| 1778046195 | 11.11° C | 84% | 1100 hPa | 0 mm | - | - | - |
| 1778045594 | 10.56° C | 85% | 1100 hPa | 0 mm | - | - | - |
| 1778044995 | 10.56° C | 85% | 1100 hPa | 0 mm | - | - | - |
| 1778043193 | 8.89° C | 88% | 1100 hPa | 0 mm | - | - | - |
| 1778042593 | 8.89° C | 88% | 1100 hPa | 0 mm | - | - | - |
| 1778041994 | 8.89° C | 88% | 1100 hPa | 0 mm | - | - | - |
| 1778041394 | 8.89° C | 88% | 1100 hPa | 0 mm | - | - | - |
| 1778040794 | 8.89° C | 87% | 1100 hPa | 0 mm | - | - | - |
| 1778039592 | 8.89° C | 87% | 1100 hPa | 0 mm | - | - | - |
| 1778038994 | 8.89° C | 87% | 1100 hPa | 0 mm | - | - | - |
| 1778038392 | 8.33° C | 87% | 1100 hPa | 0 mm | - | - | - |
| 1778037792 | 8.33° C | 87% | 1100 hPa | 0 mm | - | - | - |
| 1778037192 | 8.89° C | 84% | 1100 hPa | 0 mm | - | - | - |
| 1778035993 | 8.89° C | 84% | 1100 hPa | 0 mm | - | - | - |
| 1778035391 | 8.89° C | 84% | 1100 hPa | 0 mm | - | - | - |
| 1778034791 | 9.44° C | 82% | 1100 hPa | 0 mm | - | - | - |
| 1778034193 | 9.44° C | 82% | 1100 hPa | 0 mm | - | - | - |
* Rain latest hour (hover to see other rain measurements)
** Current wind speed in m/s (hover to see current wind gust speed)